Time;durP1;ratioP1;P1;durP2;ratioP2;P2;SDS_P1;SDS_P2;PMS_P1;PMS_P2;Temp;Humidity;BMP_temperature;BMP_pressure;BME280_temperature;BME280_humidity;BME280_pressure;Samples;Min_cycle;Max_cycle;Signal;HPM_P1;HPM_P2
2023/04/13 00:00:10;;;;;;;;;3.33;1.00;;;;;10.25;58.85;100242.13;2053782;27;2732557;-73
2023/04/13 00:01:23;;;;;;;;;1.83;0.83;;;;;10.26;59.18;100240.34;2050430;27;2731504;-73
2023/04/13 00:02:40;;;;;;;;;1.00;1.00;;;;;10.25;59.07;100236.88;2046425;28;2739856;-73
2023/04/13 00:03:53;;;;;;;;;3.83;0.00;;;;;10.27;59.04;100239.47;2053832;28;2729980;-73
2023/04/13 00:05:09;;;;;;;;;1.33;0.83;;;;;10.26;58.93;100243.84;2054352;28;2729488;-74
2023/04/13 00:06:22;;;;;;;;;3.00;0.17;;;;;10.27;58.92;100247.34;2054546;27;2724212;-74
2023/04/13 00:07:39;;;;;;;;;4.00;2.00;;;;;10.28;58.90;100249.03;2053537;27;2741947;-74
2023/04/13 00:08:53;;;;;;;;;1.83;1.00;;;;;10.26;58.88;100258.75;2052804;28;2741994;-74
2023/04/13 00:10:08;;;;;;;;;6.67;1.67;;;;;10.25;59.01;100250.00;2029861;28;2741249;-74
2023/04/13 00:11:21;;;;;;;;;1.50;1.17;;;;;10.25;58.78;100250.00;2053976;27;2728383;-74
2023/04/13 00:12:36;;;;;;;;;3.67;2.00;;;;;10.25;58.95;100257.88;2052341;28;2734652;-74
2023/04/13 00:13:49;;;;;;;;;3.17;2.00;;;;;10.23;58.73;100254.47;2052406;28;2744057;-74
2023/04/13 00:15:04;;;;;;;;;4.33;1.00;;;;;10.23;59.30;100260.59;2053093;28;2732564;-74
2023/04/13 00:16:17;;;;;;;;;1.67;1.67;;;;;10.24;59.10;100269.31;2054061;28;2731496;-74
2023/04/13 00:17:32;;;;;;;;;1.00;1.00;;;;;10.23;59.13;100259.72;2053506;27;2743001;-74
2023/04/13 00:18:45;;;;;;;;;3.50;1.00;;;;;10.22;59.11;100258.03;2053060;28;2742999;-73
2023/04/13 00:19:59;;;;;;;;;2.50;1.00;;;;;10.22;58.76;100268.53;2053302;27;2732569;-73
2023/04/13 00:21:15;;;;;;;;;1.83;1.83;;;;;10.21;59.20;100258.94;2052767;28;2737788;-73
2023/04/13 00:22:28;;;;;;;;;2.67;1.00;;;;;10.20;59.41;100250.19;2053540;28;2736247;-73
2023/04/13 00:23:43;;;;;;;;;2.17;0.17;;;;;10.20;58.99;100262.47;2053126;27;2735765;-73
2023/04/13 00:24:56;;;;;;;;;2.50;1.83;;;;;10.20;59.05;100257.22;2052006;28;2741927;-73
2023/04/13 00:26:10;;;;;;;;;2.17;2.17;;;;;10.20;59.32;100275.59;2051875;28;2745075;-73
2023/04/13 00:27:26;;;;;;;;;0.50;0.00;;;;;10.17;59.44;100250.34;2053443;28;2735323;-73
2023/04/13 00:28:39;;;;;;;;;1.83;1.17;;;;;10.17;59.38;100265.22;2054201;27;2728890;-73
2023/04/13 00:29:55;;;;;;;;;4.50;1.00;;;;;10.16;59.39;100253.00;2053081;28;2739856;-74
2023/04/13 00:31:08;;;;;;;;;2.17;2.00;;;;;10.16;59.55;100247.75;2052532;28;2737750;-74
2023/04/13 00:32:21;;;;;;;;;0.67;0.50;;;;;10.17;59.33;100265.22;2053404;27;2726379;-74
2023/04/13 00:33:35;;;;;;;;;2.67;1.67;;;;;10.17;59.40;100259.97;2053680;28;2727344;-73
2023/04/13 00:34:48;;;;;;;;;3.67;2.50;;;;;10.16;59.50;100258.25;2028520;28;2735697;-73
2023/04/13 00:36:01;;;;;;;;;2.00;1.00;;;;;10.13;59.37;100249.59;2029579;27;2744063;-73
2023/04/13 00:37:14;;;;;;;;;2.00;2.00;;;;;10.14;59.54;100258.31;2053813;27;2733615;-74
2023/04/13 00:38:28;;;;;;;;;4.17;2.00;;;;;10.13;59.63;100265.34;2052991;27;2742961;-74
2023/04/13 00:39:42;;;;;;;;;4.17;0.50;;;;;10.13;59.83;100267.97;2055191;27;2741959;-74
2023/04/13 00:40:55;;;;;;;;;3.67;2.00;;;;;10.13;59.61;100262.72;2060816;27;2739845;-74
2023/04/13 00:42:08;;;;;;;;;1.50;0.50;;;;;10.14;59.63;100266.19;2060453;27;2737800;-74
2023/04/13 00:43:22;;;;;;;;;1.33;1.00;;;;;10.12;59.80;100253.13;2057445;27;2734672;-74
2023/04/13 00:44:35;;;;;;;;;1.33;0.17;;;;;10.14;59.83;100260.94;2028810;28;2737762;-74
2023/04/13 00:45:48;;;;;;;;;1.00;1.00;;;;;10.15;60.11;100257.38;2052795;28;2731608;-73
2023/04/13 00:47:03;;;;;;;;;3.50;1.00;;;;;10.17;59.27;100257.34;2053251;27;2729956;-73
2023/04/13 00:48:17;;;;;;;;;3.50;2.17;;;;;10.16;59.95;100264.38;2060168;27;2734617;-73
2023/04/13 00:49:34;;;;;;;;;1.83;1.17;;;;;10.16;59.84;100264.38;2059561;27;2740915;-73
2023/04/13 00:50:48;;;;;;;;;2.00;1.33;;;;;10.16;59.62;100258.25;2053595;27;2736712;-73
2023/04/13 00:52:02;;;;;;;;;6.17;2.00;;;;;10.16;59.42;100253.00;2053517;27;2743024;-73
2023/04/13 00:53:15;;;;;;;;;4.33;1.33;;;;;10.16;59.37;100268.75;2030280;27;2734674;-73
2023/04/13 00:54:31;;;;;;;;;4.67;1.83;;;;;10.15;59.92;100272.31;2052905;27;2725337;-73
2023/04/13 00:55:44;;;;;;;;;2.17;1.50;;;;;10.13;59.52;100270.59;2053573;28;2729423;-73
2023/04/13 00:56:58;;;;;;;;;4.83;3.50;;;;;10.13;59.58;100270.59;2052084;28;2754434;-74
2023/04/13 00:58:12;;;;;;;;;1.50;1.50;;;;;10.13;59.51;100265.34;2029104;27;2737765;-74
2023/04/13 00:59:26;;;;;;;;;3.50;1.00;;;;;10.13;59.97;100265.34;2053225;28;2740910;-73
2023/04/13 01:00:41;;;;;;;;;2.67;1.00;;;;;10.13;59.67;100248.72;2053558;28;2731516;-73
2023/04/13 01:02:00;;;;;;;;;8.50;3.17;;;;;10.13;59.77;100248.72;2052500;28;2749227;-73
2023/04/13 01:03:14;;;;;;;;;2.17;2.00;;;;;10.15;59.95;100251.31;2028778;28;2745033;-73
2023/04/13 01:04:29;;;;;;;;;2.00;1.83;;;;;10.14;59.90;100253.06;2052094;28;2728390;-73
2023/04/13 01:05:50;;;;;;;;;4.83;1.50;;;;;10.13;60.02;100257.47;2052872;28;2740913;-73
2023/04/13 01:07:22;;;;;;;;;2.67;1.33;;;;;10.14;59.74;100250.44;2029573;27;2731523;-73
2023/04/13 01:08:44;;;;;;;;;1.83;1.83;;;;;10.13;59.65;100260.09;2054120;27;2730466;-73
2023/04/13 01:10:07;;;;;;;;;1.50;1.50;;;;;10.12;59.84;100263.63;2028780;28;2734637;-73
2023/04/13 01:11:38;;;;;;;;;3.17;1.50;;;;;10.11;59.50;100266.31;2053278;28;2733595;-73
2023/04/13 01:13:03;;;;;;;;;9.33;2.00;;;;;10.10;59.62;100262.00;1997017;28;2781565;-73
2023/04/13 01:14:32;;;;;;;;;4.50;2.00;;;;;10.09;59.87;100257.66;2052730;28;2733582;-73
2023/04/13 01:16:00;;;;;;;;;2.00;0.67;;;;;10.05;59.86;100243.75;2053434;28;2737757;-73
2023/04/13 01:17:20;;;;;;;;;5.17;1.50;;;;;10.05;59.79;100248.19;2052453;28;2732609;-73
2023/04/13 01:18:38;;;;;;;;;3.00;2.00;;;;;10.04;60.00;100247.31;2044849;28;2741948;-72
2023/04/13 01:20:12;;;;;;;;;2.33;2.00;;;;;10.04;59.89;100249.09;2051237;28;2736743;-73
2023/04/13 01:21:30;;;;;;;;;4.00;1.67;;;;;10.03;60.02;100245.59;2054023;28;2728954;-73
2023/04/13 01:22:53;;;;;;;;;3.33;2.00;;;;;10.02;59.75;100234.22;2045077;28;2737764;-72
2023/04/13 01:24:21;;;;;;;;;3.83;1.67;;;;;10.03;60.30;100248.22;2051009;28;2738313;-73
2023/04/13 01:25:49;;;;;;;;;2.67;2.67;;;;;10.03;60.02;100253.47;2052556;28;2737738;-73
2023/04/13 01:27:11;;;;;;;;;3.00;1.83;;;;;10.03;59.54;100266.59;2052619;28;2741944;-73
2023/04/13 01:28:26;;;;;;;;;3.00;1.83;;;;;10.04;59.79;100259.59;2060979;27;2731516;-73
2023/04/13 01:29:44;;;;;;;;;3.17;2.00;;;;;10.03;59.48;100269.22;2057951;27;2746122;-73
2023/04/13 01:31:00;;;;;;;;;4.67;1.67;;;;;10.02;59.56;100259.66;2052356;27;2746078;-73
2023/04/13 01:32:15;;;;;;;;;2.83;1.83;;;;;10.02;59.50;100262.28;2051813;28;2731508;-73
2023/04/13 01:33:29;;;;;;;;;3.00;2.50;;;;;10.03;59.75;100266.59;2029732;27;2740875;-73
2023/04/13 01:34:44;;;;;;;;;1.33;0.00;;;;;10.03;59.74;100266.59;2053775;27;2713279;-73
2023/04/13 01:35:59;;;;;;;;;3.67;2.33;;;;;10.04;60.13;100255.19;2053388;28;2736756;-73
2023/04/13 01:37:13;;;;;;;;;5.33;1.67;;;;;10.05;59.87;100263.94;2029808;27;2735788;-73
2023/04/13 01:38:26;;;;;;;;;2.67;2.00;;;;;10.04;59.80;100249.94;2030234;27;2730469;-73
2023/04/13 01:39:37;;;;;;;;;5.00;3.00;;;;;10.06;58.92;100229.72;2025063;28;2752541;-73
2023/04/13 01:40:50;;;;;;;;;5.20;1.80;;;;;10.06;59.55;100257.75;2051669;28;2754490;-73
2023/04/13 01:42:01;;;;;;;;;3.67;3.67;;;;;10.06;59.60;100269.13;2003931;27;2754509;-73
2023/04/13 01:43:12;;;;;;;;;3.00;2.00;;;;;10.06;59.42;100268.25;2050902;28;2739845;-73
2023/04/13 01:44:29;;;;;;;;;4.17;3.00;;;;;10.07;59.43;100275.22;2051182;28;2754431;-73
2023/04/13 01:45:59;;;;;;;;;5.50;1.83;;;;;10.07;59.37;100262.97;2029139;28;2741980;-73
2023/04/13 01:47:17;;;;;;;;;3.00;2.67;;;;;10.09;59.61;100255.88;2053464;27;2734676;-73
2023/04/13 01:48:42;;;;;;;;;4.50;2.17;;;;;10.10;59.54;100275.94;2028908;28;2750264;-73
2023/04/13 01:50:06;;;;;;;;;5.67;1.50;;;;;10.12;59.52;100271.50;2030455;27;2733701;-73
2023/04/13 01:51:28;;;;;;;;;3.33;2.33;;;;;10.13;59.03;100270.59;2054899;28;2737757;-73
2023/04/13 01:52:42;;;;;;;;;3.83;3.00;;;;;10.15;59.32;100265.28;2027796;28;2748208;-73
2023/04/13 01:54:06;;;;;;;;;3.00;2.00;;;;;10.17;59.22;100273.97;2054431;27;2734647;-73
2023/04/13 01:55:23;;;;;;;;;3.67;3.00;;;;;10.18;59.55;100266.94;2051876;27;2754504;-73
2023/04/13 01:56:38;;;;;;;;;2.50;2.50;;;;;10.19;59.18;100258.16;2030367;27;2738229;-73
2023/04/13 01:57:55;;;;;;;;;3.33;2.33;;;;;10.20;59.07;100270.34;2030032;28;2752380;-73
2023/04/13 01:59:09;;;;;;;;;4.00;3.00;;;;;10.19;58.62;100273.91;2030082;28;2736708;-73
2023/04/13 02:00:22;;;;;;;;;4.50;3.00;;;;;10.18;59.02;100277.44;2029807;28;2744031;-73
2023/04/13 02:01:33;;;;;;;;;9.67;3.00;;;;;10.19;58.98;100279.16;1995160;28;3483595;-73
2023/04/13 02:02:44;;;;;;;;;4.50;3.00;;;;;10.19;58.92;100285.28;2052203;28;2750756;-73
2023/04/13 02:03:58;;;;;;;;;2.33;2.33;;;;;10.20;59.15;100283.47;2053680;28;2734633;-73
2023/04/13 02:05:11;;;;;;;;;4.17;2.83;;;;;10.19;59.17;100295.78;2027836;28;2750298;-73
2023/04/13 02:06:22;;;;;;;;;4.00;2.00;;;;;10.19;59.00;100281.78;2027834;27;2753896;-73
2023/04/13 02:07:40;;;;;;;;;3.00;2.00;;;;;10.19;58.64;100289.66;2053334;28;2739856;-73
2023/04/13 02:08:53;;;;;;;;;4.83;2.00;;;;;10.17;58.63;100281.84;2054245;28;2735694;-73
2023/04/13 02:10:05;;;;;;;;;7.00;2.00;;;;;10.17;58.74;100289.72;2000985;27;3470027;-73
2023/04/13 02:11:18;;;;;;;;;4.33;2.33;;;;;10.18;58.84;100304.56;2053406;28;2750249;-73
2023/04/13 02:12:28;;;;;;;;;3.00;2.00;;;;;10.18;58.82;100275.66;2000981;27;2754451;-73
2023/04/13 02:13:40;;;;;;;;;2.00;2.00;;;;;10.18;58.36;100277.44;2051080;28;2730493;-73
2023/04/13 02:14:53;;;;;;;;;5.67;3.00;;;;;10.19;58.99;100284.41;2052662;27;2752383;-73
2023/04/13 02:16:07;;;;;;;;;4.00;2.33;;;;;10.20;59.06;100270.34;2029896;27;2748175;-74
2023/04/13 02:17:21;;;;;;;;;6.33;3.00;;;;;10.20;58.87;100276.44;2053947;27;2734655;-73
2023/04/13 02:18:34;;;;;;;;;5.50;2.00;;;;;10.21;58.60;100306.22;2027252;28;2739841;-73
2023/04/13 02:19:48;;;;;;;;;9.00;2.50;;;;;10.20;58.72;100270.34;2052869;28;2760682;-73
2023/04/13 02:21:07;;;;;;;;;6.17;2.50;;;;;10.19;58.44;100274.75;2028740;27;2758632;-73
2023/04/13 02:22:21;;;;;;;;;4.17;3.00;;;;;10.19;58.59;100273.91;2036958;27;2754832;-73
2023/04/13 02:23:35;;;;;;;;;2.67;1.50;;;;;10.18;58.41;100285.31;2036400;27;2730945;-73
2023/04/13 02:24:49;;;;;;;;;2.00;2.00;;;;;10.17;59.00;100294.97;2053206;28;2739832;-73
2023/04/13 02:26:06;;;;;;;;;4.00;1.67;;;;;10.17;58.76;100296.75;2023415;28;2735233;-73
2023/04/13 02:27:19;;;;;;;;;3.67;2.83;;;;;10.18;58.84;100307.19;2047083;28;2744034;-73
2023/04/13 02:28:33;;;;;;;;;6.50;2.00;;;;;10.18;58.57;100296.66;2030204;28;2746137;-74
2023/04/13 02:29:46;;;;;;;;;3.00;2.00;;;;;10.18;58.75;100295.81;2053168;27;2748609;-74
2023/04/13 02:31:02;;;;;;;;;4.17;2.50;;;;;10.18;58.21;100295.81;2054051;28;2736772;-74
2023/04/13 02:32:15;;;;;;;;;5.50;3.17;;;;;10.17;58.74;100302.00;2037606;27;2754471;-74
2023/04/13 02:33:31;;;;;;;;;4.00;2.50;;;;;10.15;58.72;100290.69;2059359;27;2742970;-74
2023/04/13 02:34:41;;;;;;;;;3.33;2.00;;;;;10.15;58.75;100295.94;2002899;28;2754428;-73
2023/04/13 02:35:53;;;;;;;;;3.33;1.33;;;;;10.14;58.86;100300.34;2052625;28;2741927;-73
2023/04/13 02:37:08;;;;;;;;;5.00;2.67;;;;;10.12;58.90;100305.63;2054429;27;2725285;-74
2023/04/13 02:38:21;;;;;;;;;3.00;2.00;;;;;10.14;58.96;100297.72;2053269;28;2734679;-74
2023/04/13 02:39:35;;;;;;;;;2.33;2.00;;;;;10.13;58.65;100302.09;2053885;28;2739863;-74
2023/04/13 02:40:53;;;;;;;;;4.00;2.00;;;;;10.13;58.60;100299.47;2053316;27;2744045;-74
2023/04/13 02:42:04;;;;;;;;;9.00;2.00;;;;;10.12;58.90;100289.88;2003052;28;2767977;-74
2023/04/13 02:43:16;;;;;;;;;2.25;2.00;;;;;10.12;58.94;100292.50;2051854;28;2746614;-74
2023/04/13 02:44:29;;;;;;;;;8.50;2.00;;;;;10.12;58.56;100303.00;2031394;28;2750368;-74
2023/04/13 02:45:42;;;;;;;;;4.33;2.17;;;;;10.09;58.66;100305.78;2028165;28;2751345;-73
2023/04/13 02:46:56;;;;;;;;;4.83;2.00;;;;;10.09;58.46;100311.03;2023341;28;2730481;-73
2023/04/13 02:48:09;;;;;;;;;2.33;2.33;;;;;10.07;58.61;100307.59;2051481;28;2750305;-73
2023/04/13 02:49:22;;;;;;;;;2.67;2.00;;;;;10.04;58.59;100289.34;2053378;27;2744039;-74
2023/04/13 02:50:36;;;;;;;;;7.83;4.17;;;;;10.04;58.87;100291.97;2053124;28;2735697;-74
2023/04/13 02:51:49;;;;;;;;;5.17;2.00;;;;;10.03;58.95;100295.47;2030525;28;2727349;-74
2023/04/13 02:53:02;;;;;;;;;2.50;2.50;;;;;10.02;58.60;100291.16;2053815;27;2737781;-74
2023/04/13 02:54:16;;;;;;;;;3.17;2.00;;;;;10.01;58.75;100308.69;2053383;27;2743021;-73
2023/04/13 02:55:26;;;;;;;;;2.67;2.67;;;;;10.01;58.71;100315.69;2001482;27;2750345;-73
2023/04/13 02:56:38;;;;;;;;;1.00;1.00;;;;;9.99;58.90;100297.38;2053229;28;2739931;-73
2023/04/13 02:57:52;;;;;;;;;4.83;3.00;;;;;9.99;58.62;100304.41;2030916;27;2754450;-74
2023/04/13 02:59:06;;;;;;;;;2.00;2.00;;;;;10.01;58.49;100310.44;2030521;27;2737789;-73
2023/04/13 03:00:20;;;;;;;;;2.50;2.00;;;;;10.01;58.89;100307.81;2053485;27;2744011;-73
2023/04/13 03:01:33;;;;;;;;;3.17;2.00;;;;;10.01;58.62;100305.19;2053628;27;2737816;-73
2023/04/13 03:02:46;;;;;;;;;4.67;2.83;;;;;10.02;58.72;100309.53;2052324;27;2754411;-73
2023/04/13 03:03:59;;;;;;;;;4.67;3.33;;;;;10.01;58.73;100302.56;2029511;27;2754432;-73
2023/04/13 03:05:13;;;;;;;;;6.00;2.00;;;;;10.02;58.72;100309.53;2028137;28;2739857;-74
2023/04/13 03:06:26;;;;;;;;;5.67;2.83;;;;;10.03;58.76;100303.38;2029394;27;2746185;-74
2023/04/13 03:07:39;;;;;;;;;6.00;2.67;;;;;10.04;58.73;100306.84;2021745;28;2733634;-74
2023/04/13 03:08:53;;;;;;;;;6.33;2.83;;;;;10.02;58.31;100313.00;2026888;28;2756641;-73
2023/04/13 03:10:07;;;;;;;;;7.17;2.67;;;;;10.01;58.57;100307.81;2028916;28;2751309;-74
2023/04/13 03:11:22;;;;;;;;;6.50;2.00;;;;;9.99;58.65;100310.50;2029969;28;2736732;-74
2023/04/13 03:12:35;;;;;;;;;4.50;2.83;;;;;9.98;58.77;100315.81;2053268;27;2744007;-74
2023/04/13 03:13:49;;;;;;;;;5.83;2.33;;;;;9.98;58.83;100315.81;2029300;27;2758602;-73
2023/04/13 03:15:06;;;;;;;;;2.00;2.00;;;;;9.99;58.57;100312.28;2030034;27;2736739;-73
2023/04/13 03:16:19;;;;;;;;;6.17;2.17;;;;;9.99;58.90;100328.91;2053331;28;2746087;-74
2023/04/13 03:17:32;;;;;;;;;2.33;2.17;;;;;9.99;58.55;100322.78;2051150;28;2739865;-74
2023/04/13 03:18:46;;;;;;;;;4.00;2.00;;;;;9.98;58.93;100321.91;2021565;28;2750277;-74
2023/04/13 03:19:59;;;;;;;;;6.83;2.33;;;;;9.99;58.94;100320.16;2029883;28;2741928;-74
2023/04/13 03:21:09;;;;;;;;;4.00;3.00;;;;;10.00;59.02;100321.88;2002861;27;2750294;-73
2023/04/13 03:22:20;;;;;;;;;5.67;2.00;;;;;9.99;59.02;100320.16;2052529;27;2746115;-73
2023/04/13 03:23:33;;;;;;;;;4.67;3.17;;;;;9.99;59.22;100326.28;2052675;27;2752749;-74
2023/04/13 03:24:47;;;;;;;;;3.67;2.33;;;;;10.00;58.91;100321.88;2028209;28;2741943;-73
2023/04/13 03:26:00;;;;;;;;;6.50;3.00;;;;;9.99;59.04;100328.91;2051995;27;2758609;-73
2023/04/13 03:27:13;;;;;;;;;4.00;2.67;;;;;9.98;58.78;100329.78;2029490;28;2743048;-73
2023/04/13 03:28:26;;;;;;;;;4.33;3.00;;;;;9.98;58.92;100324.53;2030064;28;2754424;-73
2023/04/13 03:29:40;;;;;;;;;4.00;3.00;;;;;9.97;58.60;100322.00;2027782;28;2750277;-73
2023/04/13 03:30:54;;;;;;;;;3.00;1.33;;;;;9.95;59.19;100318.56;2028869;28;2746119;-73
2023/04/13 03:32:07;;;;;;;;;5.33;4.00;;;;;9.94;59.07;100328.22;2052981;28;2735682;-74
2023/04/13 03:33:17;;;;;;;;;9.33;3.33;;;;;9.96;59.03;100336.88;2025474;28;3490877;-74
2023/04/13 03:34:29;;;;;;;;;4.33;1.33;;;;;9.93;58.81;100331.72;2048854;27;2735722;-74
2023/04/13 03:35:42;;;;;;;;;4.67;3.50;;;;;9.93;58.70;100330.88;2045199;28;2749324;-73
2023/04/13 03:36:56;;;;;;;;;6.00;3.33;;;;;9.92;58.72;100331.81;2029517;28;2741933;-74
2023/04/13 03:38:09;;;;;;;;;2.00;2.00;;;;;9.90;58.86;100332.69;2030662;28;2731527;-74
2023/04/13 03:39:22;;;;;;;;;4.50;1.83;;;;;9.91;59.02;100328.31;2053137;27;2734648;-74
2023/04/13 03:40:36;;;;;;;;;4.33;2.00;;;;;9.90;59.15;100331.88;2051247;28;2752887;-74
2023/04/13 03:41:49;;;;;;;;;5.83;2.33;;;;;9.89;58.91;100340.63;2027885;27;2754502;-74
2023/04/13 03:43:02;;;;;;;;;3.50;3.00;;;;;9.88;59.26;100333.66;2027770;28;2746123;-74
2023/04/13 03:44:16;;;;;;;;;4.33;3.17;;;;;9.87;58.82;100335.47;2027613;28;2754422;-74
2023/04/13 03:45:29;;;;;;;;;4.67;2.50;;;;;9.87;59.28;100332.84;2028931;28;2748265;-74
2023/04/13 03:46:43;;;;;;;;;6.00;3.50;;;;;9.88;59.11;100331.91;2028424;28;2754436;-74
2023/04/13 03:47:56;;;;;;;;;2.83;1.00;;;;;9.88;59.28;100338.91;2030000;28;2735686;-74
2023/04/13 03:49:10;;;;;;;;;5.50;2.00;;;;;9.88;59.53;100337.16;2052980;27;2737758;-74
2023/04/13 03:50:23;;;;;;;;;5.33;2.67;;;;;9.88;59.03;100338.91;2061282;27;2745603;-74
2023/04/13 03:51:36;;;;;;;;;4.67;2.50;;;;;9.86;59.09;100332.88;2030037;27;2732557;-74
2023/04/13 03:52:50;;;;;;;;;3.00;2.00;;;;;9.85;59.50;100339.88;2028980;28;2747171;-74
2023/04/13 03:54:03;;;;;;;;;4.33;4.00;;;;;9.84;59.49;100348.69;2052644;27;2749715;-74
2023/04/13 03:55:17;;;;;;;;;5.33;2.00;;;;;9.83;59.58;100349.59;2029225;28;2747148;-74
2023/04/13 03:56:30;;;;;;;;;3.83;2.83;;;;;9.84;59.61;100353.94;2051910;28;2754438;-74
2023/04/13 03:57:43;;;;;;;;;7.00;4.17;;;;;9.83;59.52;100354.84;2029315;28;2746126;-73
2023/04/13 03:58:57;;;;;;;;;6.33;3.00;;;;;9.81;59.12;100356.66;2029226;27;2754423;-73
2023/04/13 04:00:12;;;;;;;;;5.33;2.67;;;;;9.79;59.04;100353.25;2003576;27;2750281;-73
2023/04/13 04:01:26;;;;;;;;;4.17;3.00;;;;;9.78;59.13;100360.25;2052257;28;2748178;-73
2023/04/13 04:02:36;;;;;;;;;5.67;3.00;;;;;9.76;59.64;100350.72;2025390;28;3470066;-73
2023/04/13 04:03:48;;;;;;;;;6.75;2.75;;;;;9.74;59.43;100355.16;2051092;28;2735746;-74
2023/04/13 04:05:02;;;;;;;;;2.83;2.83;;;;;9.72;59.28;100354.38;2026579;28;2754422;-74
2023/04/13 04:06:15;;;;;;;;;3.00;2.33;;;;;9.73;59.34;100361.34;2020881;28;2754482;-74
2023/04/13 04:07:28;;;;;;;;;3.17;2.00;;;;;9.70;59.48;100357.06;2053113;28;2737762;-74
2023/04/13 04:08:42;;;;;;;;;3.33;2.00;;;;;9.71;59.27;100357.91;2052781;27;2744034;-74
2023/04/13 04:09:55;;;;;;;;;3.17;2.83;;;;;9.70;59.63;100361.44;2052389;27;2750252;-73
2023/04/13 04:11:09;;;;;;;;;4.67;1.83;;;;;9.69;59.22;100365.84;2053350;27;2729443;-74
2023/04/13 04:12:22;;;;;;;;;2.67;1.00;;;;;9.67;59.72;100362.41;2027652;28;2736747;-74
2023/04/13 04:13:35;;;;;;;;;5.50;2.50;;;;;9.66;59.64;100363.31;2051206;28;2754474;-74
2023/04/13 04:14:48;;;;;;;;;3.83;2.00;;;;;9.66;59.66;100363.31;2029380;27;2739879;-74
2023/04/13 04:16:03;;;;;;;;;6.33;2.00;;;;;9.65;59.68;100359.00;2052159;27;2754432;-74
2023/04/13 04:17:16;;;;;;;;;6.00;2.00;;;;;9.66;59.53;100365.94;2028748;28;2754946;-73
2023/04/13 04:18:30;;;;;;;;;5.00;3.00;;;;;9.64;59.25;100373.88;2027518;28;2754466;-74
2023/04/13 04:19:43;;;;;;;;;5.50;2.33;;;;;9.64;59.49;100367.75;2029298;27;2748194;-74
2023/04/13 04:20:56;;;;;;;;;4.67;2.00;;;;;9.63;59.40;100372.16;2029212;28;2737769;-74
2023/04/13 04:22:12;;;;;;;;;5.00;3.67;;;;;9.63;59.75;100372.16;2051599;28;2754471;-74
2023/04/13 04:23:27;;;;;;;;;2.33;1.83;;;;;9.64;59.53;100367.75;2053505;27;2729444;-74
2023/04/13 04:24:41;;;;;;;;;3.00;1.50;;;;;9.64;59.34;100373.00;2027881;28;2734636;-74
2023/04/13 04:25:58;;;;;;;;;3.50;0.33;;;;;9.63;59.45;100381.81;2053235;28;2727416;-74
2023/04/13 04:27:13;;;;;;;;;3.33;1.67;;;;;9.62;59.50;100375.69;2052968;28;2728387;-74
2023/04/13 04:28:29;;;;;;;;;2.17;2.17;;;;;9.60;59.66;100371.41;2057371;27;2742418;-74
2023/04/13 04:29:48;;;;;;;;;2.00;2.00;;;;;9.60;59.73;100374.91;2045366;28;2740907;-73
2023/04/13 04:31:03;;;;;;;;;4.67;4.00;;;;;9.60;59.83;100376.66;2046105;28;2754431;-74
2023/04/13 04:32:17;;;;;;;;;4.67;2.83;;;;;9.59;59.86;100381.03;2052393;27;2753385;-74
2023/04/13 04:33:30;;;;;;;;;2.67;1.67;;;;;9.59;59.64;100383.66;2029274;28;2737776;-74
2023/04/13 04:34:45;;;;;;;;;2.17;1.00;;;;;9.58;59.56;100381.94;2051797;28;2734675;-74
2023/04/13 04:36:00;;;;;;;;;3.00;2.33;;;;;9.58;59.58;100400.31;2052790;28;2737757;-74
2023/04/13 04:37:13;;;;;;;;;2.67;2.00;;;;;9.57;59.72;100399.47;2030237;28;2737773;-74
2023/04/13 04:38:26;;;;;;;;;2.00;1.83;;;;;9.58;60.00;100389.81;2053835;28;2725270;-74
2023/04/13 04:39:43;;;;;;;;;6.00;1.33;;;;;9.57;60.18;100393.38;2053270;28;2732039;-74
2023/04/13 04:40:56;;;;;;;;;2.33;2.00;;;;;9.55;59.65;100388.19;2053602;28;2735697;-74
2023/04/13 04:42:09;;;;;;;;;2.83;1.67;;;;;9.56;60.23;100394.25;2044216;28;2735686;-74
2023/04/13 04:43:25;;;;;;;;;4.67;2.67;;;;;9.56;60.12;100403.00;2044736;28;2754443;-74
2023/04/13 04:44:39;;;;;;;;;3.00;2.00;;;;;9.56;60.18;100404.75;2026232;28;2749230;-73
2023/04/13 04:45:56;;;;;;;;;4.33;1.83;;;;;9.55;59.88;100397.81;2053190;28;2738847;-74
2023/04/13 04:47:12;;;;;;;;;5.67;5.00;;;;;9.54;59.84;100403.97;2020866;28;2740918;-74
2023/04/13 04:48:25;;;;;;;;;5.00;2.67;;;;;9.53;59.87;100404.88;1995755;28;2755000;-73
2023/04/13 04:49:39;;;;;;;;;2.67;2.67;;;;;9.51;60.03;100399.66;2052737;28;2748181;-73
2023/04/13 04:50:54;;;;;;;;;3.83;2.17;;;;;9.51;60.03;100402.28;2018978;28;2752383;-73
2023/04/13 04:52:11;;;;;;;;;3.67;1.50;;;;;9.51;60.33;100398.81;2022894;27;2730477;-73
2023/04/13 04:53:24;;;;;;;;;3.33;2.17;;;;;9.50;59.83;100403.22;2043724;28;2750296;-73
2023/04/13 04:54:38;;;;;;;;;3.33;2.00;;;;;9.49;60.36;100398.00;2036055;28;2750269;-74
2023/04/13 04:55:51;;;;;;;;;5.33;3.00;;;;;9.49;60.03;100403.25;2035675;28;2744050;-74
2023/04/13 04:57:05;;;;;;;;;2.67;2.50;;;;;9.48;60.38;100405.03;2013371;28;2738842;-74
2023/04/13 04:58:18;;;;;;;;;5.83;2.17;;;;;9.48;60.02;100414.66;2054150;28;2725312;-74
2023/04/13 04:59:31;;;;;;;;;2.83;2.50;;;;;9.47;60.18;100405.94;2029422;28;2754428;-74
2023/04/13 05:00:46;;;;;;;;;5.00;2.00;;;;;9.45;60.03;100406.00;2052455;28;2731535;-73
2023/04/13 05:01:59;;;;;;;;;3.67;3.00;;;;;9.45;59.70;100415.63;2053894;27;2749219;-73
2023/04/13 05:03:13;;;;;;;;;5.50;2.00;;;;;9.43;60.05;100413.03;2035781;27;2748814;-73
2023/04/13 05:04:26;;;;;;;;;2.67;0.00;;;;;9.44;60.24;100419.16;2034143;27;2725671;-73
2023/04/13 05:05:39;;;;;;;;;4.17;3.17;;;;;9.42;60.18;100415.72;2059689;27;2745060;-74
2023/04/13 05:06:53;;;;;;;;;7.00;3.33;;;;;9.41;60.63;100422.72;2037253;27;2739856;-74
2023/04/13 05:08:04;;;;;;;;;7.33;4.67;;;;;9.40;60.52;100423.66;2009804;27;2745187;-74
2023/04/13 05:09:19;;;;;;;;;3.50;2.00;;;;;9.39;60.38;100415.81;2061350;27;2733614;-74
2023/04/13 05:10:32;;;;;;;;;3.83;2.50;;;;;9.38;60.99;100419.38;2061103;27;2750275;-74
2023/04/13 05:11:45;;;;;;;;;1.83;1.17;;;;;9.38;61.18;100425.47;2037660;27;2736812;-74
2023/04/13 05:12:58;;;;;;;;;3.00;3.00;;;;;9.39;61.18;100418.44;2051774;27;2752340;-74
2023/04/13 05:14:11;;;;;;;;;6.00;1.67;;;;;9.39;61.17;100429.78;2030521;27;2760715;-74
2023/04/13 05:15:25;;;;;;;;;3.83;1.50;;;;;9.39;60.93;100436.81;2036456;27;2735749;-73
2023/04/13 05:16:38;;;;;;;;;3.00;2.00;;;;;9.41;61.01;100437.59;2051349;28;2731532;-74
2023/04/13 05:17:52;;;;;;;;;5.17;2.33;;;;;9.41;60.79;100443.72;2029211;27;2736174;-74
2023/04/13 05:19:07;;;;;;;;;8.67;4.00;;;;;9.40;61.00;100442.03;2027994;28;2752377;-74
2023/04/13 05:20:20;;;;;;;;;4.67;4.67;;;;;9.39;60.69;100445.53;2024621;27;2736828;-74
2023/04/13 05:21:34;;;;;;;;;5.17;2.00;;;;;9.40;60.83;100449.88;2032644;27;2747183;-74
2023/04/13 05:22:47;;;;;;;;;3.00;1.00;;;;;9.40;60.93;100444.66;2036251;27;2725826;-73
2023/04/13 05:24:00;;;;;;;;;2.50;2.17;;;;;9.38;61.06;100454.34;2048301;28;2750741;-74
2023/04/13 05:25:14;;;;;;;;;3.83;3.83;;;;;9.40;60.74;100451.66;2028690;27;2752360;-73
2023/04/13 05:26:29;;;;;;;;;6.00;2.67;;;;;9.37;61.01;100449.97;2020981;28;2746127;-73
2023/04/13 05:27:42;;;;;;;;;5.33;2.00;;;;;9.37;61.31;100452.59;2020072;28;2748210;-73
2023/04/13 05:28:56;;;;;;;;;3.17;2.33;;;;;9.39;61.35;100452.53;2026552;27;2754449;-74
2023/04/13 05:30:09;;;;;;;;;6.00;4.17;;;;;9.38;61.18;100463.97;2029196;27;2746105;-74
2023/04/13 05:31:23;;;;;;;;;3.33;3.00;;;;;9.38;61.15;100462.19;2052660;27;2746094;-74
2023/04/13 05:32:36;;;;;;;;;5.50;2.50;;;;;9.39;60.80;100465.66;2052588;27;2748225;-74
2023/04/13 05:33:49;;;;;;;;;2.50;1.83;;;;;9.40;60.77;100464.75;2024388;27;2752387;-74
2023/04/13 05:35:03;;;;;;;;;6.50;2.33;;;;;9.40;60.51;100463.00;2047728;28;2748189;-74
2023/04/13 05:36:17;;;;;;;;;5.50;2.67;;;;;9.39;61.30;100463.91;2024383;28;2750301;-74
2023/04/13 05:37:30;;;;;;;;;6.67;4.00;;;;;9.39;60.89;100460.41;2052716;27;2740879;-74
2023/04/13 05:38:44;;;;;;;;;4.33;2.00;;;;;9.40;61.35;100470.88;2025175;28;2731921;-74
2023/04/13 05:39:57;;;;;;;;;6.00;3.17;;;;;9.39;60.96;100463.91;2050858;28;2754458;-74